Time;durP1;ratioP1;P1;durP2;ratioP2;P2;SDS_P1;SDS_P2;PMS_P1;PMS_P2;Temp;Humidity;BMP_temperature;BMP_pressure;BME280_temperature;BME280_humidity;BME280_pressure;Samples;Min_cycle;Max_cycle;Signal;HPM_P1;HPM_P2
2021/06/09 00:01:49;;;;;;;1.88;1.17;;;;;;;16.42;50.35;101459.59;5086925;28;20301;-85
2021/06/09 00:04:17;;;;;;;2.63;1.27;;;;;;;16.29;50.68;101466.72;5100629;28;20039;-87
2021/06/09 00:06:44;;;;;;;6.03;1.63;;;;;;;16.28;51.20;101462.38;5090435;28;20053;-87
2021/06/09 00:09:12;;;;;;;1.77;1.08;;;;;;;16.23;50.84;101464.50;5115400;28;20083;-87
2021/06/09 00:11:39;;;;;;;1.85;0.88;;;;;;;16.27;50.82;101464.19;5080441;27;20047;-88
2021/06/09 00:14:06;;;;;;;1.75;0.90;;;;;;;16.21;51.21;101461.97;5119408;28;20094;-88
2021/06/09 00:16:34;;;;;;;3.42;1.10;;;;;;;16.25;50.91;101465.25;5077770;28;20053;-85
2021/06/09 00:19:03;;;;;;;2.75;1.02;;;;;;;16.13;51.15;101459.00;5117577;27;20106;-85
2021/06/09 00:21:31;;;;;;;2.25;1.27;;;;;;;16.04;51.68;101463.13;5119483;27;20093;-90
2021/06/09 00:23:58;;;;;;;4.97;1.48;;;;;;;16.07;51.39;101462.88;5111460;27;20125;-87
2021/06/09 00:26:25;;;;;;;1.90;1.10;;;;;;;15.95;51.94;101467.25;5074423;28;20044;-88
2021/06/09 00:28:53;;;;;;;1.88;1.33;;;;;;;15.94;51.89;101464.72;5095725;28;20047;-88
2021/06/09 00:31:21;;;;;;;3.65;1.48;;;;;;;15.83;52.70;101467.22;5111378;28;20131;-86
2021/06/09 00:33:49;;;;;;;2.10;1.35;;;;;;;15.77;53.13;101470.31;5130745;27;20138;-87
2021/06/09 00:36:16;;;;;;;1.52;1.00;;;;;;;15.60;53.80;101469.59;5072553;28;20130;-88
2021/06/09 00:38:44;;;;;;;2.40;0.98;;;;;;;15.56;53.94;101476.06;5084377;28;20067;-88
2021/06/09 00:41:11;;;;;;;2.22;1.08;;;;;;;15.47;53.96;101479.31;5103173;28;20040;-88
2021/06/09 00:43:38;;;;;;;1.73;1.20;;;;;;;15.45;55.43;101478.59;5107940;28;20056;-89
2021/06/09 00:46:10;;;;;;;1.55;1.05;;;;;;;15.47;54.65;101486.44;5104638;28;20147;-87
2021/06/09 00:48:39;;;;;;;1.13;0.80;;;;;;;15.32;54.53;101477.69;5103406;27;20062;-87
2021/06/09 00:51:16;;;;;;;4.40;1.27;;;;;;;15.28;54.99;101481.47;5072023;28;20482;-89
2021/06/09 00:53:52;;;;;;;1.27;0.90;;;;;;;15.31;55.65;101481.25;5069436;28;20079;-88
2021/06/09 00:56:21;;;;;;;;;;;;;;;15.18;56.44;101487.38;5107775;27;20130;-87
2021/06/09 00:58:50;;;;;;;1.95;1.25;;;;;;;15.29;55.87;101481.38;5095781;28;19919;-87
2021/06/09 01:01:19;;;;;;;2.75;0.90;;;;;;;15.10;56.69;101489.66;5085374;28;20143;-87
2021/06/09 01:03:47;;;;;;;2.88;1.27;;;;;;;15.10;57.26;101483.53;5107068;28;20062;-86
2021/06/09 01:06:14;;;;;;;3.88;1.20;;;;;;;15.08;57.82;101473.00;5075870;28;20453;-87
2021/06/09 01:08:43;;;;;;;2.17;1.08;;;;;;;15.08;57.30;101474.78;5078097;28;20452;-89
2021/06/09 01:11:16;;;;;;;6.25;1.40;;;;;;;14.96;56.75;101473.78;5103877;28;20539;-90
2021/06/09 01:13:44;;;;;;;2.58;1.38;;;;;;;14.83;56.77;101480.81;5076113;28;20047;-89
2021/06/09 01:16:11;;;;;;;1.02;0.90;;;;;;;14.82;57.63;101479.97;5090794;28;20075;-88
2021/06/09 01:18:39;;;;;;;2.10;1.10;;;;;;;14.62;58.24;101473.25;5100241;27;20068;-86
2021/06/09 01:21:06;;;;;;;1.23;1.13;;;;;;;14.51;58.86;101481.03;5101552;27;20615;-87
2021/06/09 01:23:34;;;;;;;1.63;1.17;;;;;;;14.41;58.74;101472.78;5088250;28;20086;-86
2021/06/09 01:26:03;;;;;;;4.13;1.80;;;;;;;14.47;59.62;101479.47;5091931;28;20082;-87
2021/06/09 01:28:30;;;;;;;2.85;1.40;;;;;;;14.36;59.23;101477.50;5074277;28;20079;-87
2021/06/09 01:30:57;;;;;;;1.83;1.00;;;;;;;14.32;59.66;101475.09;5109212;27;20138;-88
2021/06/09 01:33:25;;;;;;;2.38;1.48;;;;;;;14.25;60.47;101460.56;5076855;28;20147;-88
2021/06/09 01:35:53;;;;;;;6.32;1.50;;;;;;;14.27;59.82;101467.44;5065764;28;20177;-85
2021/06/09 01:38:22;;;;;;;3.63;1.45;;;;;;;14.33;59.57;101461.78;5091715;28;20054;-87
2021/06/09 01:40:49;;;;;;;2.60;1.27;;;;;;;14.40;59.01;101465.75;5092041;27;20465;-86
2021/06/09 01:43:17;;;;;;;2.88;1.23;;;;;;;14.48;59.58;101462.66;5067997;28;20048;-85
2021/06/09 01:45:45;;;;;;;2.38;1.40;;;;;;;14.65;59.67;101472.22;5083380;28;20286;-86
2021/06/09 01:48:12;;;;;;;2.15;1.25;;;;;;;14.48;59.15;101470.63;5071556;28;20058;-89
2021/06/09 01:50:40;;;;;;;3.35;1.63;;;;;;;14.44;59.81;101467.25;5108322;27;20116;-88
2021/06/09 01:53:08;;;;;;;5.18;1.10;;;;;;;14.57;60.16;101464.75;5084572;28;20121;-85
2021/06/09 01:55:37;;;;;;;2.47;1.55;;;;;;;14.57;60.08;101471.84;5099894;28;20410;-84
2021/06/09 01:58:07;;;;;;;3.90;1.25;;;;;;;14.29;60.63;101470.03;5101720;28;20115;-86
2021/06/09 02:00:41;;;;;;;4.68;1.33;;;;;;;14.21;61.05;101459.03;5087194;28;20043;-86
2021/06/09 02:03:09;;;;;;;2.80;1.42;;;;;;;14.21;61.97;101459.88;5079337;28;20078;-86
2021/06/09 02:05:36;;;;;;;2.55;1.70;;;;;;;14.38;61.64;101458.84;5097112;28;20131;-85
2021/06/09 02:08:06;;;;;;;2.97;1.50;;;;;;;14.40;61.64;101463.09;5106045;28;20062;-86
2021/06/09 02:10:34;;;;;;;1.92;1.65;;;;;;;14.47;61.26;101460.94;5093867;27;20048;-84
2021/06/09 02:13:07;;;;;;;3.10;1.50;;;;;;;14.31;61.69;101465.47;5119059;28;20028;-85
2021/06/09 02:15:36;;;;;;;2.28;1.27;;;;;;;14.16;61.29;101460.16;5075409;28;20079;-86
2021/06/09 02:18:23;;;;;;;2.05;1.60;;;;;;;14.35;61.16;101461.69;5090667;28;20032;-87
2021/06/09 02:20:59;;;;;;;2.90;1.40;;;;;;;14.17;60.71;101451.28;5074358;28;20118;-84
2021/06/09 02:23:31;;;;;;;2.38;1.38;;;;;;;14.30;62.34;101455.81;5103210;28;20036;-85
2021/06/09 02:25:59;;;;;;;2.00;1.63;;;;;;;14.39;61.90;101455.25;5115633;28;20047;-86
2021/06/09 02:28:31;;;;;;;3.08;1.98;;;;;;;14.19;61.94;101457.34;5079628;28;20044;-85
2021/06/09 02:30:59;;;;;;;3.08;1.70;;;;;;;14.07;62.39;101457.22;5093980;28;20048;-85
2021/06/09 02:33:28;;;;;;;1.70;1.48;;;;;;;14.15;62.69;101452.31;5110527;28;20190;-87
2021/06/09 02:35:56;;;;;;;4.50;2.17;;;;;;;14.08;62.71;101448.34;5079793;28;20063;-87
2021/06/09 02:38:24;;;;;;;2.53;1.67;;;;;;;14.05;62.82;101451.16;5068325;27;20048;-88
2021/06/09 02:40:54;;;;;;;3.88;1.58;;;;;;;13.86;63.09;101451.41;5093397;28;20139;-87
2021/06/09 02:43:22;;;;;;;4.20;1.75;;;;;;;14.05;62.71;101453.81;5085295;28;20095;-87
2021/06/09 02:45:51;;;;;;;4.05;1.45;;;;;;;14.06;62.53;101453.72;5086644;28;20057;-87
2021/06/09 02:48:24;;;;;;;6.47;1.30;;;;;;;13.85;63.10;101462.94;5081260;28;20055;-86
2021/06/09 02:50:55;;;;;;;2.83;1.27;;;;;;;13.79;63.68;101453.59;5076301;28;20134;-86
2021/06/09 02:53:29;;;;;;;5.32;1.58;;;;;;;13.71;63.33;101466.41;5075607;28;20060;-87
2021/06/09 02:56:15;;;;;;;3.17;1.50;;;;;;;13.57;63.71;101459.28;5072727;28;20103;-85
2021/06/09 02:59:05;;;;;;;2.63;1.83;;;;;;;13.60;64.15;101455.63;5096571;28;20078;-87
2021/06/09 03:01:41;;;;;;;3.45;1.58;;;;;;;13.91;63.25;101459.94;5092637;27;20032;-89
2021/06/09 03:04:16;;;;;;;6.38;2.47;;;;;;;13.79;63.15;101456.22;5113234;28;20027;-84
2021/06/09 03:06:55;;;;;;;6.28;2.15;;;;;;;13.76;63.60;101463.50;5099633;27;20029;-82
2021/06/09 03:09:49;;;;;;;3.22;1.85;;;;;;;13.87;63.87;101455.78;5112618;28;20052;-86
2021/06/09 03:12:33;;;;;;;4.07;1.65;;;;;;;13.96;63.40;101465.81;5102909;28;20051;-85
2021/06/09 03:15:10;;;;;;;3.15;2.00;;;;;;;13.91;63.54;101465.22;5116916;27;20039;-84
2021/06/09 03:17:58;;;;;;;3.47;1.95;;;;;;;13.96;63.63;101463.19;5103641;28;20092;-87
2021/06/09 03:20:37;;;;;;;5.05;2.10;;;;;;;14.00;62.97;101461.16;5096298;28;20139;-84
2021/06/09 03:23:15;;;;;;;2.58;1.90;;;;;;;14.06;63.59;101456.38;5095207;28;20119;-84
2021/06/09 03:25:52;;;;;;;6.65;2.10;;;;;;;14.25;63.13;101452.63;5096318;28;20036;-85
2021/06/09 03:28:41;;;;;;;6.28;2.38;;;;;;;14.26;63.38;101449.00;5074163;28;20128;-87
2021/06/09 03:31:09;;;;;;;5.63;2.50;;;;;;;14.32;62.87;101454.81;5112459;28;20071;-87
2021/06/09 03:33:41;;;;;;;5.85;2.10;;;;;;;14.42;63.01;101449.78;5097098;28;20068;-86
2021/06/09 03:36:11;;;;;;;5.85;3.05;;;;;;;14.53;63.04;101451.78;5123054;28;20117;-86
2021/06/09 03:38:44;;;;;;;4.20;2.00;;;;;;;14.57;62.88;101448.84;5082758;28;20279;-89
2021/06/09 03:41:13;;;;;;;4.20;2.70;;;;;;;14.54;62.63;101448.19;5083892;28;20109;-85
2021/06/09 03:43:45;;;;;;;3.72;2.25;;;;;;;14.57;62.90;101445.34;5099978;28;20148;-87
2021/06/09 03:46:14;;;;;;;7.82;2.38;;;;;;;14.56;62.80;101456.91;5083690;28;20098;-87
2021/06/09 03:48:43;;;;;;;5.30;2.33;;;;;;;14.62;62.60;101446.75;5078759;28;20111;-86
2021/06/09 03:51:11;;;;;;;12.80;2.58;;;;;;;14.71;62.49;101449.78;5058221;28;20063;-85
2021/06/09 03:53:39;;;;;;;5.80;2.58;;;;;;;14.88;62.36;101446.91;5091951;28;20083;-87
2021/06/09 03:56:08;;;;;;;4.65;2.15;;;;;;;14.94;61.97;101447.34;5118169;27;20047;-90
2021/06/09 03:58:37;;;;;;;6.43;2.15;;;;;;;15.17;61.43;101445.03;5092843;28;20531;-89
2021/06/09 04:01:09;;;;;;;3.15;1.73;;;;;;;15.25;61.49;101444.53;5078647;28;20082;-88
2021/06/09 04:03:38;;;;;;;8.90;2.70;;;;;;;15.31;61.40;101452.06;5094699;28;20512;-87
2021/06/09 04:06:11;;;;;;;4.78;1.88;;;;;;;15.54;60.06;101434.66;5088598;28;20052;-88
2021/06/09 04:08:41;;;;;;;4.57;2.10;;;;;;;15.69;59.78;101442.47;5076520;28;20479;-86
2021/06/09 04:11:13;;;;;;;7.70;2.20;;;;;;;15.85;59.13;101433.44;5104131;28;20054;-86
2021/06/09 04:13:43;;;;;;;3.00;2.00;;;;;;;16.04;58.70;101443.69;5104193;28;20039;-87
2021/06/09 04:16:17;;;;;;;4.22;1.85;;;;;;;16.27;58.16;101436.78;5086690;28;20441;-86
2021/06/09 04:18:45;;;;;;;8.18;2.28;;;;;;;16.38;57.83;101443.03;5104087;28;20367;-87
2021/06/09 04:21:13;;;;;;;7.20;2.28;;;;;;;16.62;57.51;101436.94;5075425;28;20484;-86
2021/06/09 04:23:40;;;;;;;5.65;2.47;;;;;;;17.15;56.23;101449.03;5117344;27;20211;-87
2021/06/09 04:26:11;;;;;;;4.32;2.05;;;;;;;17.72;54.99;101447.47;5091714;28;20137;-88
2021/06/09 04:28:39;;;;;;;7.60;2.28;;;;;;;18.93;51.79;101454.03;5085052;28;20109;-89
2021/06/09 04:31:06;;;;;;;6.40;2.03;;;;;;;21.20;46.38;101449.63;5108299;27;20092;-85
2021/06/09 04:33:33;;;;;;;18.83;3.33;;;;;;;22.97;41.43;101444.63;5073363;28;20095;-87
2021/06/09 04:36:02;;;;;;;4.68;2.15;;;;;;;24.99;37.54;101440.84;5070149;28;20047;-82
2021/06/09 04:38:29;;;;;;;5.90;1.48;;;;;;;25.80;36.09;101441.09;5093026;28;20046;-85
2021/06/09 04:40:57;;;;;;;5.10;1.70;;;;;;;26.76;33.67;101441.88;5096414;28;20547;-81
2021/06/09 04:43:25;;;;;;;3.78;2.38;;;;;;;27.76;32.20;101443.75;5075774;28;20036;-84
2021/06/09 04:45:52;;;;;;;6.45;1.63;;;;;;;28.56;30.87;101440.38;5083681;27;20070;-83
2021/06/09 04:48:20;;;;;;;3.75;1.55;;;;;;;29.33;29.05;101438.97;5060521;28;20051;-85
2021/06/09 04:50:49;;;;;;;6.13;2.00;;;;;;;29.89;27.92;101439.06;5094138;27;20062;-90
2021/06/09 04:53:18;;;;;;;3.97;1.73;;;;;;;29.96;26.70;101435.38;5097457;28;20055;-84
2021/06/09 04:55:47;;;;;;;5.65;1.80;;;;;;;29.43;27.54;101442.19;5112988;28;20130;-85
2021/06/09 04:58:18;;;;;;;4.00;2.05;;;;;;;29.39;27.38;101443.63;5101733;28;20155;-84
2021/06/09 05:00:46;;;;;;;3.95;2.20;;;;;;;29.66;26.88;101445.56;5085344;28;20085;-85
2021/06/09 05:03:14;;;;;;;5.55;2.40;;;;;;;29.33;27.34;101444.41;5090211;28;20040;-83
2021/06/09 05:05:41;;;;;;;3.92;1.83;;;;;;;29.33;27.40;101436.28;5094713;28;20058;-83
2021/06/09 05:08:09;;;;;;;4.55;1.90;;;;;;;29.83;26.81;101442.56;5090451;28;20051;-82
2021/06/09 05:10:42;;;;;;;6.32;2.00;;;;;;;28.41;28.57;101444.97;5106260;27;20047;-81
2021/06/09 05:13:16;;;;;;;4.25;1.90;;;;;;;29.27;27.11;101441.44;5084626;28;20043;-83
2021/06/09 05:15:50;;;;;;;3.50;2.00;;;;;;;28.39;28.33;101442.44;5090060;28;20069;-80
2021/06/09 05:18:26;;;;;;;3.85;1.88;;;;;;;31.25;24.71;101446.44;5095737;28;20048;-80
2021/06/09 05:20:54;;;;;;;4.07;2.03;;;;;;;31.60;24.90;101443.53;5090158;28;20044;-78
2021/06/09 05:23:32;;;;;;;6.32;2.13;;;;;;;30.72;24.71;101437.28;5073250;28;20500;-86
2021/06/09 05:26:00;;;;;;;7.40;2.15;;;;;;;29.69;26.12;101447.06;5082584;28;20048;-87
2021/06/09 05:28:33;;;;;;;3.72;1.60;;;;;;;31.78;23.62;101437.47;5072186;28;20824;-84
2021/06/09 05:31:01;;;;;;;8.95;2.55;;;;;;;30.80;24.84;101436.25;5088446;28;20427;-81
2021/06/09 05:33:31;;;;;;;9.60;2.20;;;;;;;30.83;24.87;101436.69;5088143;28;20126;-80
2021/06/09 05:35:59;;;;;;;10.02;2.22;;;;;;;31.21;24.47;101444.34;5082013;28;20159;-81
2021/06/09 05:38:27;;;;;;;3.53;1.75;;;;;;;31.27;24.11;101443.50;5069914;27;20055;-80
2021/06/09 05:40:58;;;;;;;3.70;1.75;;;;;;;31.86;23.33;101442.72;5086003;28;20087;-85
2021/06/09 05:43:28;;;;;;;4.22;2.25;;;;;;;32.50;22.35;101447.41;5120730;28;20062;-84
2021/06/09 05:45:58;;;;;;;4.13;2.00;;;;;;;31.86;23.06;101447.34;5122292;28;20082;-84
2021/06/09 05:48:26;;;;;;;12.73;2.28;;;;;;;30.91;24.38;101447.38;5084646;28;20048;-85
2021/06/09 05:50:58;;;;;;;2.70;1.50;;;;;;;32.74;22.35;101442.31;5117259;27;20078;-86
2021/06/09 05:53:26;;;;;;;6.95;1.65;;;;;;;33.60;22.07;101446.41;5093514;28;20115;-85
2021/06/09 05:55:55;;;;;;;4.25;1.60;;;;;;;34.38;20.27;101448.59;5077108;27;20051;-87
2021/06/09 05:58:25;;;;;;;3.67;1.60;;;;;;;33.51;21.18;101440.41;5122596;27;20074;-87
2021/06/09 06:01:05;;;;;;;4.78;2.00;;;;;;;34.22;20.75;101448.16;5072927;28;20448;-86
2021/06/09 06:03:33;;;;;;;3.40;1.85;;;;;;;35.22;19.95;101452.38;5093228;28;20047;-86
2021/06/09 06:06:22;;;;;;;7.15;2.08;;;;;;;33.20;21.72;101444.78;5062257;28;20056;-89
2021/06/09 06:08:49;;;;;;;3.40;1.73;;;;;;;31.07;23.85;101461.66;5080846;28;20070;-85
2021/06/09 06:11:20;;;;;;;5.63;2.70;;;;;;;32.84;22.45;101450.84;5097102;27;20061;-85
2021/06/09 06:13:48;;;;;;;3.83;2.00;;;;;;;32.13;22.73;101448.97;5103110;28;20108;-86
2021/06/09 06:16:19;;;;;;;8.38;1.88;;;;;;;32.25;22.53;101450.00;5078026;28;20119;-83
2021/06/09 06:18:49;;;;;;;4.35;1.60;;;;;;;33.99;21.09;101450.69;5114328;28;20075;-86
2021/06/09 06:21:19;;;;;;;2.15;1.55;;;;;;;33.50;21.63;101449.63;5096624;28;20139;-84
2021/06/09 06:23:46;;;;;;;4.65;1.73;;;;;;;32.42;22.46;101446.81;5104619;27;20046;-88
2021/06/09 06:26:15;;;;;;;8.15;2.22;;;;;;;32.04;23.02;101446.69;5105985;28;20330;-88
2021/06/09 06:28:43;;;;;;;4.90;1.52;;;;;;;31.97;23.60;101446.69;5113438;27;20044;-88
2021/06/09 06:31:14;;;;;;;4.68;1.70;;;;;;;35.10;19.54;101446.84;5091611;28;20070;-85
2021/06/09 06:33:44;;;;;;;5.72;2.20;;;;;;;34.07;20.84;101447.66;5116736;27;20043;-89
2021/06/09 06:36:12;;;;;;;13.48;2.53;;;;;;;34.38;20.47;101454.91;5079882;28;20134;-87
2021/06/09 06:38:41;;;;;;;15.18;2.60;;;;;;;33.90;21.25;101457.47;5109205;28;20063;-88
2021/06/09 06:41:09;;;;;;;5.40;1.88;;;;;;;31.29;23.97;101460.47;5110804;28;21036;-89
2021/06/09 06:43:38;;;;;;;2.35;1.50;;;;;;;32.91;22.38;101450.84;5106118;28;20113;-86
2021/06/09 06:46:05;;;;;;;4.20;2.17;;;;;;;33.69;21.51;101454.09;5110523;28;20192;-86
2021/06/09 06:48:34;;;;;;;3.63;1.67;;;;;;;35.46;18.95;101461.47;5102498;28;20547;-86
2021/06/09 06:51:02;;;;;;;3.08;1.73;;;;;;;36.75;17.96;101467.75;5106571;28;20073;-88
2021/06/09 06:53:30;;;;;;;3.42;1.65;;;;;;;35.88;18.35;101461.41;5114861;27;20066;-85
2021/06/09 06:55:59;;;;;;;5.15;2.13;;;;;;;35.50;19.65;101454.50;5056159;23;20128;-74
2021/06/09 06:58:30;;;;;;;2.33;1.90;;;;;;;36.41;18.32;101461.25;5012836;28;20217;-70
2021/06/09 07:00:58;;;;;;;6.55;1.85;;;;;;;36.17;18.77;101465.13;5026457;28;20463;-71
2021/06/09 07:03:27;;;;;;;4.05;1.88;;;;;;;36.65;17.79;101455.75;5007583;28;20128;-70
2021/06/09 07:05:55;;;;;;;3.60;1.80;;;;;;;36.42;18.32;101462.94;5015852;28;20963;-70
2021/06/09 07:08:23;;;;;;;5.28;3.20;;;;;;;35.76;19.13;101461.44;5043900;28;20051;-71
2021/06/09 07:10:51;;;;;;;4.45;2.40;;;;;;;35.09;19.95;101463.53;5027646;28;20073;-71
2021/06/09 07:13:21;;;;;;;2.58;1.88;;;;;;;32.99;21.47;101458.78;5048128;28;20071;-71
2021/06/09 07:15:52;;;;;;;2.45;1.90;;;;;;;34.32;20.46;101461.28;5026872;28;20065;-71
2021/06/09 07:18:23;;;;;;;2.83;2.17;;;;;;;35.54;19.17;101466.63;5051975;28;20044;-71
2021/06/09 07:20:50;;;;;;;3.60;1.80;;;;;;;36.24;18.70;101461.16;5029026;28;20063;-72
2021/06/09 07:23:18;;;;;;;2.55;1.80;;;;;;;37.41;17.37;101457.22;5017855;28;20139;-71
2021/06/09 07:25:46;;;;;;;5.85;1.95;;;;;;;36.36;18.18;101460.34;5017495;28;20052;-70
2021/06/09 07:28:14;;;;;;;3.97;1.98;;;;;;;36.58;18.50;101463.28;5033549;28;20059;-70
2021/06/09 07:30:41;;;;;;;2.83;1.90;;;;;;;33.64;21.19;101464.00;5032260;28;20071;-70
2021/06/09 07:33:09;;;;;;;8.27;2.70;;;;;;;35.88;18.95;101456.75;5012605;28;20128;-71
2021/06/09 07:35:36;;;;;;;4.38;1.83;;;;;;;33.87;20.32;101460.69;5050560;28;20199;-71
2021/06/09 07:38:20;;;;;;;5.70;1.60;;;;;;;32.42;22.10;101455.00;5049968;28;20136;-72
2021/06/09 07:40:51;;;;;;;2.90;1.47;;;;;;;32.03;22.54;101466.81;5045823;28;20056;-70
2021/06/09 07:43:22;;;;;;;4.40;2.00;;;;;;;32.56;21.85;101459.38;5033433;28;20196;-71
2021/06/09 07:45:50;;;;;;;6.80;1.42;;;;;;;34.13;20.66;101456.84;5025492;28;20055;-69
2021/06/09 07:48:19;;;;;;;3.70;1.65;;;;;;;35.31;19.04;101461.94;5022147;28;20128;-71
2021/06/09 07:50:49;;;;;;;4.63;1.90;;;;;;;37.54;17.18;101457.97;5018511;28;20128;-69
2021/06/09 07:53:17;;;;;;;3.30;1.70;;;;;;;38.45;16.21;101453.00;5016117;28;20175;-70
2021/06/09 07:55:46;;;;;;;2.42;2.17;;;;;;;38.20;15.89;101459.00;5027000;28;20053;-71
2021/06/09 07:58:15;;;;;;;3.63;1.70;;;;;;;38.11;16.37;101457.78;5044724;28;20083;-71
2021/06/09 08:00:43;;;;;;;3.70;2.30;;;;;;;39.09;15.12;101447.69;5009788;28;20041;-72
2021/06/09 08:03:10;;;;;;;2.35;1.80;;;;;;;37.10;17.19;101444.00;5012517;28;20069;-71
2021/06/09 08:05:39;;;;;;;4.85;3.22;;;;;;;37.21;16.89;101446.69;5010822;28;20493;-70
2021/06/09 08:08:07;;;;;;;9.48;2.08;;;;;;;35.71;18.62;101453.06;5041628;28;20072;-71
2021/06/09 08:10:40;;;;;;;;;;;;;;;33.14;21.15;101447.53;5030621;28;20110;-71
2021/06/09 08:13:09;;;;;;;5.78;1.60;;;;;;;33.89;20.63;101453.91;5029416;28;19957;-70
2021/06/09 08:15:37;;;;;;;7.57;1.80;;;;;;;36.27;18.11;101451.66;5010589;28;20128;-72
2021/06/09 08:18:06;;;;;;;5.13;1.70;;;;;;;36.41;18.34;101450.28;5011207;28;20453;-71
2021/06/09 08:20:33;;;;;;;6.63;1.92;;;;;;;36.37;18.05;101453.75;5009812;28;20561;-70
2021/06/09 08:23:00;;;;;;;3.53;1.70;;;;;;;36.66;17.31;101451.94;5026530;28;20046;-71
2021/06/09 08:25:28;;;;;;;5.32;1.42;;;;;;;36.68;17.51;101447.84;5027386;28;20049;-70
2021/06/09 08:27:55;;;;;;;3.70;2.15;;;;;;;36.60;17.63;101456.47;5010749;28;20406;-71
2021/06/09 08:30:23;;;;;;;7.03;1.60;;;;;;;33.82;19.91;101457.75;5027069;28;20045;-72
2021/06/09 08:32:50;;;;;;;3.72;1.25;;;;;;;29.82;23.00;101459.91;5040410;28;20096;-70
2021/06/09 08:35:18;;;;;;;1.70;0.93;;;;;;;27.90;25.72;101461.06;5011280;28;20152;-72
2021/06/09 08:37:45;;;;;;;1.38;0.93;;;;;;;27.06;26.73;101460.94;5026585;28;20064;-71
2021/06/09 08:40:13;;;;;;;4.13;1.10;;;;;;;27.51;27.77;101457.47;5021081;28;20042;-70
2021/06/09 08:42:41;;;;;;;4.03;1.17;;;;;;;27.57;28.46;101461.31;5009985;28;20120;-71
2021/06/09 08:45:11;;;;;;;3.30;1.30;;;;;;;27.59;28.48;101467.38;5028313;28;20037;-71
2021/06/09 08:47:39;;;;;;;6.10;1.52;;;;;;;27.29;28.33;101461.03;5029047;28;20061;-72
2021/06/09 08:50:09;;;;;;;3.42;1.38;;;;;;;26.83;29.27;101450.09;5026656;28;20072;-70
2021/06/09 08:52:47;;;;;;;1.85;1.40;;;;;;;26.79;29.69;101453.34;5027257;28;20056;-70
2021/06/09 08:55:16;;;;;;;4.38;1.02;;;;;;;26.84;29.31;101451.81;5032503;28;20106;-70
2021/06/09 08:57:47;;;;;;;4.55;1.50;;;;;;;25.94;30.79;101456.63;5040589;28;20140;-71
2021/06/09 09:00:17;;;;;;;3.97;1.30;;;;;;;25.72;31.92;101453.56;5035864;28;20599;-71
2021/06/09 09:02:46;;;;;;;6.28;1.45;;;;;;;25.98;30.55;101456.13;5056795;28;20327;-71
2021/06/09 09:05:13;;;;;;;3.58;1.30;;;;;;;25.70;30.85;101457.44;5053096;28;20047;-69
2021/06/09 09:07:40;;;;;;;5.60;1.40;;;;;;;25.18;32.29;101453.19;5057021;28;20137;-71
2021/06/09 09:10:09;;;;;;;5.65;1.83;;;;;;;25.12;32.39;101447.63;5042326;28;20052;-70
2021/06/09 09:12:36;;;;;;;2.38;1.20;;;;;;;25.41;32.83;101452.56;5036569;28;20151;-70
2021/06/09 09:15:06;;;;;;;5.50;1.25;;;;;;;24.91;33.15;101443.50;5021450;28;20036;-70
2021/06/09 09:17:48;;;;;;;6.28;1.40;;;;;;;24.72;33.48;101452.72;5033351;28;20099;-70
2021/06/09 09:20:20;;;;;;;4.75;1.50;;;;;;;25.27;32.82;101445.13;5043345;28;20140;-70
2021/06/09 09:22:57;;;;;;;7.53;1.40;;;;;;;25.03;32.95;101449.41;5045600;28;20140;-71
2021/06/09 09:25:27;;;;;;;3.00;1.40;;;;;;;25.08;32.80;101451.66;5038115;28;20422;-70
2021/06/09 09:28:03;;;;;;;5.05;1.50;;;;;;;24.49;33.72;101454.28;5037208;28;20058;-71
2021/06/09 09:30:33;;;;;;;4.00;1.35;;;;;;;24.50;33.00;101451.44;5020195;28;20486;-71
2021/06/09 09:33:04;;;;;;;4.75;1.17;;;;;;;25.00;32.61;101449.75;5055055;28;20037;-71
2021/06/09 09:35:35;;;;;;;4.30;1.33;;;;;;;24.71;32.86;101452.84;5055495;28;20605;-72
2021/06/09 09:38:28;;;;;;;2.97;1.10;;;;;;;25.23;32.30;101445.47;5059761;28;20041;-72
2021/06/09 09:41:01;;;;;;;1.58;0.98;;;;;;;25.51;31.76;101447.84;5046534;28;20104;-73
2021/06/09 09:43:41;;;;;;;2.88;1.17;;;;;;;25.65;32.65;101441.75;5061256;28;20053;-73
2021/06/09 09:46:09;;;;;;;3.38;1.58;;;;;;;25.80;31.68;101446.50;5054315;28;20044;-71
2021/06/09 09:48:40;;;;;;;1.30;1.08;;;;;;;25.71;31.70;101451.03;5066144;28;20052;-72
2021/06/09 09:51:10;;;;;;;2.42;1.20;;;;;;;25.94;31.31;101451.25;5037230;28;20182;-71
2021/06/09 09:53:37;;;;;;;9.40;1.40;;;;;;;26.02;31.04;101446.63;5059104;28;20048;-71
2021/06/09 09:56:09;;;;;;;2.50;1.50;;;;;;;25.51;31.15;101447.84;5055303;28;20049;-72
2021/06/09 09:58:54;;;;;;;4.00;1.40;;;;;;;25.42;31.89;101448.84;5053428;28;20533;-72
2021/06/09 10:01:23;;;;;;;6.40;1.70;;;;;;;25.30;32.07;101451.00;5035302;28;20440;-74
2021/06/09 10:08:06;;;;;;;3.63;1.17;;;;;;;25.71;31.81;101441.09;5052600;28;20067;-71
2021/06/09 10:10:33;;;;;;;2.25;1.10;;;;;;;25.93;30.76;101439.56;5037058;28;20192;-72
2021/06/09 10:13:16;;;;;;;3.55;1.25;;;;;;;26.10;31.12;101442.25;5057616;28;20143;-73
2021/06/09 10:15:50;;;;;;;3.72;1.70;;;;;;;26.28;30.87;101442.88;5053222;28;20322;-72
2021/06/09 10:18:19;;;;;;;3.28;1.10;;;;;;;25.94;31.12;101441.28;5036139;28;20072;-72
2021/06/09 10:20:48;;;;;;;1.77;1.15;;;;;;;25.77;31.89;101428.00;5036031;28;20048;-72
2021/06/09 10:23:39;;;;;;;4.68;1.42;;;;;;;25.58;31.62;101430.00;5036523;28;20529;-72
2021/06/09 10:26:15;;;;;;;2.30;1.38;;;;;;;25.57;31.73;101424.75;5037470;28;20045;-71
2021/06/09 10:29:16;;;;;;;2.15;1.30;;;;;;;25.21;31.48;101434.00;5060919;28;20072;-71
2021/06/09 10:31:58;;;;;;;7.07;3.33;;;;;;;24.78;32.80;101423.44;5019107;28;20058;-71
2021/06/09 10:34:28;;;;;;;5.68;1.25;;;;;;;24.89;32.85;101421.28;5037538;28;20059;-72
2021/06/09 10:36:57;;;;;;;5.03;1.42;;;;;;;24.85;33.10;101425.28;5052989;28;20079;-72
2021/06/09 10:39:26;;;;;;;6.40;1.40;;;;;;;25.15;32.54;101426.59;5054469;28;20036;-70
2021/06/09 10:41:56;;;;;;;2.67;1.38;;;;;;;25.11;33.08;101419.00;5039332;28;20124;-71
2021/06/09 10:44:26;;;;;;;3.90;1.50;;;;;;;25.07;32.90;101421.13;5042259;23;20045;-71
2021/06/09 10:46:55;;;;;;;3.97;1.40;;;;;;;25.43;32.59;101410.94;5033042;28;20131;-70
2021/06/09 10:49:23;;;;;;;5.20;1.30;;;;;;;25.91;31.90;101411.09;5046606;28;20143;-71
2021/06/09 10:51:52;;;;;;;2.67;1.30;;;;;;;25.79;31.67;101410.59;5046079;28;20041;-71
2021/06/09 10:54:24;;;;;;;3.20;1.00;;;;;;;26.14;31.26;101412.06;5041853;28;20120;-71
2021/06/09 10:56:56;;;;;;;3.92;1.30;;;;;;;26.17;30.76;101405.47;5009150;28;20342;-71
2021/06/09 10:59:26;;;;;;;3.72;1.30;;;;;;;26.04;30.49;101400.63;5045516;28;20115;-70
2021/06/09 11:02:00;;;;;;;7.80;1.40;;;;;;;25.39;31.96;101403.34;5025518;28;20521;-70
2021/06/09 11:04:36;;;;;;;3.42;1.23;;;;;;;25.20;32.06;101401.81;5027520;28;20049;-69
2021/06/09 11:07:06;;;;;;;4.53;1.50;;;;;;;25.10;32.68;101402.00;5045206;28;20048;-69
2021/06/09 11:09:33;;;;;;;2.42;1.17;;;;;;;24.89;32.15;101394.34;5039455;28;20072;-70
2021/06/09 11:12:12;;;;;;;1.90;1.15;;;;;;;25.60;31.63;101387.50;5046429;28;20078;-72
2021/06/09 11:14:45;;;;;;;7.85;1.67;;;;;;;25.84;31.75;101388.50;5039409;28;20313;-70
2021/06/09 11:17:13;;;;;;;3.47;1.13;;;;;;;26.28;30.95;101380.78;5049211;28;20087;-70
2021/06/09 11:19:44;;;;;;;5.43;1.33;;;;;;;26.19;30.64;101385.38;5010126;28;20058;-70
2021/06/09 11:22:22;;;;;;;2.47;1.27;;;;;;;26.05;30.62;101378.00;5027955;28;20051;-71
2021/06/09 11:25:22;;;;;;;4.88;1.40;;;;;;;25.89;31.10;101369.94;5029553;28;20050;-69
2021/06/09 11:27:59;;;;;;;2.30;1.30;;;;;;;25.77;31.26;101371.34;5027197;28;20140;-70
2021/06/09 11:30:30;;;;;;;5.60;1.45;;;;;;;25.97;31.71;101376.16;5027986;28;20053;-73
2021/06/09 11:33:04;;;;;;;4.63;1.33;;;;;;;26.00;31.35;101377.69;5025812;28;20400;-70
2021/06/09 11:35:51;;;;;;;3.97;1.52;;;;;;;25.57;31.15;101366.28;4995473;28;20132;-70
2021/06/09 11:38:25;;;;;;;3.28;1.27;;;;;;;25.51;31.31;101369.66;5063989;28;20133;-70
2021/06/09 11:41:05;;;;;;;2.10;1.55;;;;;;;25.55;32.15;101368.31;5041504;28;20036;-72
2021/06/09 11:43:41;;;;;;;1.83;1.10;;;;;;;25.68;31.52;101368.63;5011310;28;20096;-73
2021/06/09 11:46:20;;;;;;;3.75;1.33;;;;;;;25.59;31.46;101358.88;4988310;28;20052;-72
2021/06/09 11:48:56;;;;;;;4.60;1.40;;;;;;;25.64;31.84;101355.66;5025734;28;20084;-71